sensor_id;sensor_type;location;lat;lon;timestamp;temperature;humidity
15231;DHT22;32569;51.762;8.564;2023-08-07T00:01:04;14.30;99.90
15231;DHT22;32569;51.762;8.564;2023-08-07T00:03:31;14.30;99.90
15231;DHT22;32569;51.762;8.564;2023-08-07T00:05:58;14.20;99.90
15231;DHT22;32569;51.762;8.564;2023-08-07T00:08:24;14.10;99.90
15231;DHT22;32569;51.762;8.564;2023-08-07T00:10:52;14.10;99.90
15231;DHT22;32569;51.762;8.564;2023-08-07T00:13:19;14.10;99.90
15231;DHT22;32569;51.762;8.564;2023-08-07T00:15:46;14.10;99.90
15231;DHT22;32569;51.762;8.564;2023-08-07T00:18:15;14.10;99.90
15231;DHT22;32569;51.762;8.564;2023-08-07T00:20:42;14.10;99.90
15231;DHT22;32569;51.762;8.564;2023-08-07T00:23:09;14.10;99.90
15231;DHT22;32569;51.762;8.564;2023-08-07T00:25:35;14.00;99.90
15231;DHT22;32569;51.762;8.564;2023-08-07T00:28:04;14.10;99.90
15231;DHT22;32569;51.762;8.564;2023-08-07T00:30:30;14.10;99.90
15231;DHT22;32569;51.762;8.564;2023-08-07T00:32:57;14.10;99.90
15231;DHT22;32569;51.762;8.564;2023-08-07T00:35:24;14.10;99.90
15231;DHT22;32569;51.762;8.564;2023-08-07T00:37:50;14.00;99.90
15231;DHT22;32569;51.762;8.564;2023-08-07T00:40:17;14.10;99.90
15231;DHT22;32569;51.762;8.564;2023-08-07T00:42:44;14.10;99.90
15231;DHT22;32569;51.762;8.564;2023-08-07T00:45:12;14.10;99.90
15231;DHT22;32569;51.762;8.564;2023-08-07T00:47:43;14.10;99.90
15231;DHT22;32569;51.762;8.564;2023-08-07T00:50:09;14.10;99.90
15231;DHT22;32569;51.762;8.564;2023-08-07T00:52:36;14.00;99.90
15231;DHT22;32569;51.762;8.564;2023-08-07T00:55:04;14.00;99.90
15231;DHT22;32569;51.762;8.564;2023-08-07T00:57:31;14.10;99.90
15231;DHT22;32569;51.762;8.564;2023-08-07T00:59:59;14.00;99.90
15231;DHT22;32569;51.762;8.564;2023-08-07T01:02:27;14.10;99.90
15231;DHT22;32569;51.762;8.564;2023-08-07T01:04:54;14.00;99.90
15231;DHT22;32569;51.762;8.564;2023-08-07T01:07:21;14.10;99.90
15231;DHT22;32569;51.762;8.564;2023-08-07T01:09:48;14.10;99.90
15231;DHT22;32569;51.762;8.564;2023-08-07T01:12:16;14.20;99.90
15231;DHT22;32569;51.762;8.564;2023-08-07T01:14:51;14.10;99.90
15231;DHT22;32569;51.762;8.564;2023-08-07T01:17:22;14.10;99.90
15231;DHT22;32569;51.762;8.564;2023-08-07T01:19:51;14.20;99.90
15231;DHT22;32569;51.762;8.564;2023-08-07T01:22:23;14.10;99.90
15231;DHT22;32569;51.762;8.564;2023-08-07T01:24:50;14.20;99.90
15231;DHT22;32569;51.762;8.564;2023-08-07T01:27:36;14.10;99.90
15231;DHT22;32569;51.762;8.564;2023-08-07T01:30:14;14.10;99.90
15231;DHT22;32569;51.762;8.564;2023-08-07T01:32:49;14.10;99.90
15231;DHT22;32569;51.762;8.564;2023-08-07T01:35:20;14.20;99.90
15231;DHT22;32569;51.762;8.564;2023-08-07T01:37:55;14.20;99.90
15231;DHT22;32569;51.762;8.564;2023-08-07T01:40:23;14.20;99.90
15231;DHT22;32569;51.762;8.564;2023-08-07T01:42:53;14.20;99.90
15231;DHT22;32569;51.762;8.564;2023-08-07T01:45:24;14.30;99.90
15231;DHT22;32569;51.762;8.564;2023-08-07T01:47:57;14.20;99.90
15231;DHT22;32569;51.762;8.564;2023-08-07T01:50:24;14.20;99.90
15231;DHT22;32569;51.762;8.564;2023-08-07T01:52:52;14.10;99.90
15231;DHT22;32569;51.762;8.564;2023-08-07T01:55:20;14.10;99.90
15231;DHT22;32569;51.762;8.564;2023-08-07T01:57:47;14.10;99.90
15231;DHT22;32569;51.762;8.564;2023-08-07T02:00:14;14.10;99.90
15231;DHT22;32569;51.762;8.564;2023-08-07T02:02:41;14.20;99.90
15231;DHT22;32569;51.762;8.564;2023-08-07T02:05:07;14.20;99.90
15231;DHT22;32569;51.762;8.564;2023-08-07T02:07:34;14.10;99.90
15231;DHT22;32569;51.762;8.564;2023-08-07T02:10:02;14.10;99.90
15231;DHT22;32569;51.762;8.564;2023-08-07T02:12:29;14.10;99.90
15231;DHT22;32569;51.762;8.564;2023-08-07T02:15:00;14.10;99.90
15231;DHT22;32569;51.762;8.564;2023-08-07T02:17:27;14.10;99.90
15231;DHT22;32569;51.762;8.564;2023-08-07T02:19:55;14.10;99.90
15231;DHT22;32569;51.762;8.564;2023-08-07T02:22:22;14.10;99.90
15231;DHT22;32569;51.762;8.564;2023-08-07T02:24:51;14.10;99.90
15231;DHT22;32569;51.762;8.564;2023-08-07T02:27:19;14.20;99.90
15231;DHT22;32569;51.762;8.564;2023-08-07T02:29:49;14.10;99.90
15231;DHT22;32569;51.762;8.564;2023-08-07T02:32:16;14.20;99.90
15231;DHT22;32569;51.762;8.564;2023-08-07T02:34:45;14.20;99.90
15231;DHT22;32569;51.762;8.564;2023-08-07T02:37:11;14.20;99.90
15231;DHT22;32569;51.762;8.564;2023-08-07T02:39:38;14.20;99.90
15231;DHT22;32569;51.762;8.564;2023-08-07T02:42:06;14.20;99.90
15231;DHT22;32569;51.762;8.564;2023-08-07T02:44:34;14.20;99.90
15231;DHT22;32569;51.762;8.564;2023-08-07T02:47:01;14.20;99.90
15231;DHT22;32569;51.762;8.564;2023-08-07T02:49:30;14.20;99.90
15231;DHT22;32569;51.762;8.564;2023-08-07T02:51:57;14.20;99.90
15231;DHT22;32569;51.762;8.564;2023-08-07T02:54:24;14.20;99.90
15231;DHT22;32569;51.762;8.564;2023-08-07T02:56:50;14.30;99.90
15231;DHT22;32569;51.762;8.564;2023-08-07T02:59:17;14.30;99.90
15231;DHT22;32569;51.762;8.564;2023-08-07T03:01:45;14.10;99.90
15231;DHT22;32569;51.762;8.564;2023-08-07T03:04:12;14.10;99.90
15231;DHT22;32569;51.762;8.564;2023-08-07T03:06:38;14.20;99.90
15231;DHT22;32569;51.762;8.564;2023-08-07T03:09:05;14.20;99.90
15231;DHT22;32569;51.762;8.564;2023-08-07T03:11:32;14.20;99.90
15231;DHT22;32569;51.762;8.564;2023-08-07T03:13:59;14.20;99.90
15231;DHT22;32569;51.762;8.564;2023-08-07T03:16:25;14.20;99.90
15231;DHT22;32569;51.762;8.564;2023-08-07T03:18:56;14.20;99.90
15231;DHT22;32569;51.762;8.564;2023-08-07T03:21:23;14.20;99.90
15231;DHT22;32569;51.762;8.564;2023-08-07T03:23:50;14.20;99.90
15231;DHT22;32569;51.762;8.564;2023-08-07T03:26:17;14.30;99.90
15231;DHT22;32569;51.762;8.564;2023-08-07T03:28:44;14.20;99.90
15231;DHT22;32569;51.762;8.564;2023-08-07T03:31:12;14.20;99.90
15231;DHT22;32569;51.762;8.564;2023-08-07T03:33:39;14.20;99.90
15231;DHT22;32569;51.762;8.564;2023-08-07T03:36:07;14.20;99.90
15231;DHT22;32569;51.762;8.564;2023-08-07T03:38:33;14.30;99.90
15231;DHT22;32569;51.762;8.564;2023-08-07T03:41:03;14.20;99.90
15231;DHT22;32569;51.762;8.564;2023-08-07T03:43:30;14.30;99.90
15231;DHT22;32569;51.762;8.564;2023-08-07T03:45:57;14.30;99.90
15231;DHT22;32569;51.762;8.564;2023-08-07T03:48:23;14.20;99.90
15231;DHT22;32569;51.762;8.564;2023-08-07T03:50:50;14.30;99.90
15231;DHT22;32569;51.762;8.564;2023-08-07T03:53:21;14.30;99.90
15231;DHT22;32569;51.762;8.564;2023-08-07T03:55:51;14.30;99.90
15231;DHT22;32569;51.762;8.564;2023-08-07T03:58:18;14.30;99.90
15231;DHT22;32569;51.762;8.564;2023-08-07T04:00:48;14.20;99.90
15231;DHT22;32569;51.762;8.564;2023-08-07T04:03:16;14.30;99.90
15231;DHT22;32569;51.762;8.564;2023-08-07T04:05:43;14.40;99.90
15231;DHT22;32569;51.762;8.564;2023-08-07T04:08:10;14.30;99.90
15231;DHT22;32569;51.762;8.564;2023-08-07T04:10:38;14.40;99.90
15231;DHT22;32569;51.762;8.564;2023-08-07T04:13:04;14.40;99.90
15231;DHT22;32569;51.762;8.564;2023-08-07T04:15:31;14.40;99.90
15231;DHT22;32569;51.762;8.564;2023-08-07T04:17:58;14.40;99.90
15231;DHT22;32569;51.762;8.564;2023-08-07T04:20:24;14.30;99.90
15231;DHT22;32569;51.762;8.564;2023-08-07T04:22:51;14.30;99.90
15231;DHT22;32569;51.762;8.564;2023-08-07T04:25:18;14.30;99.90
15231;DHT22;32569;51.762;8.564;2023-08-07T04:27:46;14.30;99.90
15231;DHT22;32569;51.762;8.564;2023-08-07T04:30:12;14.30;99.90
15231;DHT22;32569;51.762;8.564;2023-08-07T04:32:39;14.30;99.90
15231;DHT22;32569;51.762;8.564;2023-08-07T04:35:07;14.30;99.90
15231;DHT22;32569;51.762;8.564;2023-08-07T04:37:33;14.30;99.90
15231;DHT22;32569;51.762;8.564;2023-08-07T04:40:00;14.30;99.90
15231;DHT22;32569;51.762;8.564;2023-08-07T04:42:27;14.30;99.90
15231;DHT22;32569;51.762;8.564;2023-08-07T04:44:55;14.40;99.90
15231;DHT22;32569;51.762;8.564;2023-08-07T04:47:22;14.30;99.90
15231;DHT22;32569;51.762;8.564;2023-08-07T04:49:48;14.40;99.90
15231;DHT22;32569;51.762;8.564;2023-08-07T04:52:15;14.40;99.90
15231;DHT22;32569;51.762;8.564;2023-08-07T04:54:42;14.40;99.90
15231;DHT22;32569;51.762;8.564;2023-08-07T04:57:09;14.30;99.90
15231;DHT22;32569;51.762;8.564;2023-08-07T04:59:35;14.30;99.90
15231;DHT22;32569;51.762;8.564;2023-08-07T05:02:04;14.30;99.90
15231;DHT22;32569;51.762;8.564;2023-08-07T05:04:31;14.30;99.90
15231;DHT22;32569;51.762;8.564;2023-08-07T05:06:57;14.30;99.90
15231;DHT22;32569;51.762;8.564;2023-08-07T05:09:24;14.30;99.90
15231;DHT22;32569;51.762;8.564;2023-08-07T05:11:51;14.30;99.90
15231;DHT22;32569;51.762;8.564;2023-08-07T05:14:18;14.20;99.90
15231;DHT22;32569;51.762;8.564;2023-08-07T05:16:44;14.30;99.90
15231;DHT22;32569;51.762;8.564;2023-08-07T05:19:12;14.30;99.90
15231;DHT22;32569;51.762;8.564;2023-08-07T05:21:39;14.20;99.90
15231;DHT22;32569;51.762;8.564;2023-08-07T05:24:06;14.20;99.90
15231;DHT22;32569;51.762;8.564;2023-08-07T05:26:32;14.30;99.90
15231;DHT22;32569;51.762;8.564;2023-08-07T05:28:59;14.30;99.90
15231;DHT22;32569;51.762;8.564;2023-08-07T05:31:26;14.20;99.90
15231;DHT22;32569;51.762;8.564;2023-08-07T05:33:52;14.20;99.90
15231;DHT22;32569;51.762;8.564;2023-08-07T05:36:20;14.30;99.90
15231;DHT22;32569;51.762;8.564;2023-08-07T05:38:47;14.30;99.90
15231;DHT22;32569;51.762;8.564;2023-08-07T05:41:14;14.30;99.90
15231;DHT22;32569;51.762;8.564;2023-08-07T05:43:41;14.30;99.90
15231;DHT22;32569;51.762;8.564;2023-08-07T05:46:08;14.30;99.90
15231;DHT22;32569;51.762;8.564;2023-08-07T05:48:35;14.30;99.90
15231;DHT22;32569;51.762;8.564;2023-08-07T05:51:02;14.30;99.90
15231;DHT22;32569;51.762;8.564;2023-08-07T05:53:30;14.40;99.90
15231;DHT22;32569;51.762;8.564;2023-08-07T05:55:56;14.30;99.90
15231;DHT22;32569;51.762;8.564;2023-08-07T05:58:23;14.40;99.90
15231;DHT22;32569;51.762;8.564;2023-08-07T06:00:50;14.40;99.90
15231;DHT22;32569;51.762;8.564;2023-08-07T06:03:16;14.40;99.90
15231;DHT22;32569;51.762;8.564;2023-08-07T06:05:44;14.50;99.90
15231;DHT22;32569;51.762;8.564;2023-08-07T06:08:10;14.60;99.90
15231;DHT22;32569;51.762;8.564;2023-08-07T06:10:38;14.70;99.90
15231;DHT22;32569;51.762;8.564;2023-08-07T06:13:05;14.70;99.90
15231;DHT22;32569;51.762;8.564;2023-08-07T06:15:33;14.80;99.90
15231;DHT22;32569;51.762;8.564;2023-08-07T06:18:00;14.90;99.90
15231;DHT22;32569;51.762;8.564;2023-08-07T06:20:27;14.80;99.90
15231;DHT22;32569;51.762;8.564;2023-08-07T06:22:53;14.90;99.90
15231;DHT22;32569;51.762;8.564;2023-08-07T06:25:20;14.80;99.90
15231;DHT22;32569;51.762;8.564;2023-08-07T06:27:50;14.90;99.90
15231;DHT22;32569;51.762;8.564;2023-08-07T06:30:17;14.90;99.90
15231;DHT22;32569;51.762;8.564;2023-08-07T06:32:44;14.80;99.90
15231;DHT22;32569;51.762;8.564;2023-08-07T06:35:10;14.70;99.90
15231;DHT22;32569;51.762;8.564;2023-08-07T06:37:37;14.70;99.90
15231;DHT22;32569;51.762;8.564;2023-08-07T06:40:05;14.60;99.90
15231;DHT22;32569;51.762;8.564;2023-08-07T06:42:31;14.70;99.90
15231;DHT22;32569;51.762;8.564;2023-08-07T06:45:00;14.60;99.90
15231;DHT22;32569;51.762;8.564;2023-08-07T06:47:26;14.60;99.90
15231;DHT22;32569;51.762;8.564;2023-08-07T06:49:53;14.60;99.90
15231;DHT22;32569;51.762;8.564;2023-08-07T06:52:20;14.50;99.90
15231;DHT22;32569;51.762;8.564;2023-08-07T06:54:47;14.40;99.90
15231;DHT22;32569;51.762;8.564;2023-08-07T06:57:14;14.40;99.90
15231;DHT22;32569;51.762;8.564;2023-08-07T06:59:40;14.40;99.90
15231;DHT22;32569;51.762;8.564;2023-08-07T07:02:08;14.50;99.90
15231;DHT22;32569;51.762;8.564;2023-08-07T07:04:35;14.50;99.90
15231;DHT22;32569;51.762;8.564;2023-08-07T07:07:03;14.60;99.90
15231;DHT22;32569;51.762;8.564;2023-08-07T07:09:29;14.70;99.90
15231;DHT22;32569;51.762;8.564;2023-08-07T07:11:57;14.60;99.90
15231;DHT22;32569;51.762;8.564;2023-08-07T07:14:24;14.80;99.90
15231;DHT22;32569;51.762;8.564;2023-08-07T07:16:50;14.80;99.90
15231;DHT22;32569;51.762;8.564;2023-08-07T07:19:19;14.80;99.90
15231;DHT22;32569;51.762;8.564;2023-08-07T07:21:45;14.70;99.90
15231;DHT22;32569;51.762;8.564;2023-08-07T07:24:12;14.80;99.90
15231;DHT22;32569;51.762;8.564;2023-08-07T07:26:39;14.90;99.90
15231;DHT22;32569;51.762;8.564;2023-08-07T07:29:05;15.10;99.90
15231;DHT22;32569;51.762;8.564;2023-08-07T07:31:32;15.20;99.90
15231;DHT22;32569;51.762;8.564;2023-08-07T07:33:59;15.30;99.90
15231;DHT22;32569;51.762;8.564;2023-08-07T07:36:28;15.20;99.90
15231;DHT22;32569;51.762;8.564;2023-08-07T07:38:54;15.20;99.90
15231;DHT22;32569;51.762;8.564;2023-08-07T07:41:22;15.10;99.90
15231;DHT22;32569;51.762;8.564;2023-08-07T07:43:49;15.00;99.90
15231;DHT22;32569;51.762;8.564;2023-08-07T07:46:15;15.00;99.90
15231;DHT22;32569;51.762;8.564;2023-08-07T07:48:42;15.00;99.90
15231;DHT22;32569;51.762;8.564;2023-08-07T07:51:09;14.90;99.90
15231;DHT22;32569;51.762;8.564;2023-08-07T07:53:37;14.90;99.90
15231;DHT22;32569;51.762;8.564;2023-08-07T07:56:04;15.00;99.90
15231;DHT22;32569;51.762;8.564;2023-08-07T07:58:31;15.10;99.90
15231;DHT22;32569;51.762;8.564;2023-08-07T08:00:58;15.20;99.90
15231;DHT22;32569;51.762;8.564;2023-08-07T08:03:24;15.30;99.90
15231;DHT22;32569;51.762;8.564;2023-08-07T08:05:52;15.20;99.90
15231;DHT22;32569;51.762;8.564;2023-08-07T08:08:18;15.10;99.90
15231;DHT22;32569;51.762;8.564;2023-08-07T08:10:46;15.10;99.90
15231;DHT22;32569;51.762;8.564;2023-08-07T08:13:13;15.10;99.90
15231;DHT22;32569;51.762;8.564;2023-08-07T08:15:40;15.20;99.90
15231;DHT22;32569;51.762;8.564;2023-08-07T08:18:07;15.20;99.90
15231;DHT22;32569;51.762;8.564;2023-08-07T08:20:34;15.20;99.90
15231;DHT22;32569;51.762;8.564;2023-08-07T08:23:00;15.30;99.90
15231;DHT22;32569;51.762;8.564;2023-08-07T08:25:27;15.30;99.90
15231;DHT22;32569;51.762;8.564;2023-08-07T08:27:55;15.40;99.90
15231;DHT22;32569;51.762;8.564;2023-08-07T08:30:22;15.40;99.90
15231;DHT22;32569;51.762;8.564;2023-08-07T08:32:49;15.50;99.90
15231;DHT22;32569;51.762;8.564;2023-08-07T08:35:15;15.60;99.90
15231;DHT22;32569;51.762;8.564;2023-08-07T08:37:42;15.60;99.90
15231;DHT22;32569;51.762;8.564;2023-08-07T08:40:09;15.80;99.90
15231;DHT22;32569;51.762;8.564;2023-08-07T08:42:43;15.80;99.90
15231;DHT22;32569;51.762;8.564;2023-08-07T08:45:13;15.90;99.90
15231;DHT22;32569;51.762;8.564;2023-08-07T08:47:41;15.90;99.90
15231;DHT22;32569;51.762;8.564;2023-08-07T08:50:10;16.00;99.90
15231;DHT22;32569;51.762;8.564;2023-08-07T08:52:40;16.20;99.90
15231;DHT22;32569;51.762;8.564;2023-08-07T08:55:07;16.20;99.90
15231;DHT22;32569;51.762;8.564;2023-08-07T08:57:34;16.30;99.90
15231;DHT22;32569;51.762;8.564;2023-08-07T09:00:03;16.10;99.90
15231;DHT22;32569;51.762;8.564;2023-08-07T09:02:43;16.00;99.90
15231;DHT22;32569;51.762;8.564;2023-08-07T09:05:10;16.10;99.90
15231;DHT22;32569;51.762;8.564;2023-08-07T09:07:37;16.10;99.90
15231;DHT22;32569;51.762;8.564;2023-08-07T09:10:05;16.00;99.90
15231;DHT22;32569;51.762;8.564;2023-08-07T09:12:33;16.00;99.90
15231;DHT22;32569;51.762;8.564;2023-08-07T09:15:02;16.20;99.90
15231;DHT22;32569;51.762;8.564;2023-08-07T09:17:31;16.40;99.90
15231;DHT22;32569;51.762;8.564;2023-08-07T09:20:01;16.60;99.90
15231;DHT22;32569;51.762;8.564;2023-08-07T09:22:29;16.60;99.90
15231;DHT22;32569;51.762;8.564;2023-08-07T09:24:56;16.70;99.90
15231;DHT22;32569;51.762;8.564;2023-08-07T09:27:25;16.70;99.90
15231;DHT22;32569;51.762;8.564;2023-08-07T09:29:54;16.80;99.90
15231;DHT22;32569;51.762;8.564;2023-08-07T09:32:22;16.80;99.90
15231;DHT22;32569;51.762;8.564;2023-08-07T09:34:50;16.50;99.90
15231;DHT22;32569;51.762;8.564;2023-08-07T09:37:18;16.30;99.90
15231;DHT22;32569;51.762;8.564;2023-08-07T09:39:46;16.20;99.90
15231;DHT22;32569;51.762;8.564;2023-08-07T09:42:13;16.10;99.90
15231;DHT22;32569;51.762;8.564;2023-08-07T09:44:41;16.20;99.90
15231;DHT22;32569;51.762;8.564;2023-08-07T09:47:12;16.40;99.90
15231;DHT22;32569;51.762;8.564;2023-08-07T09:49:40;16.80;99.90
15231;DHT22;32569;51.762;8.564;2023-08-07T09:52:08;17.10;99.90
15231;DHT22;32569;51.762;8.564;2023-08-07T09:54:36;17.20;99.90
15231;DHT22;32569;51.762;8.564;2023-08-07T09:57:04;17.10;99.90
15231;DHT22;32569;51.762;8.564;2023-08-07T09:59:32;17.20;99.90
15231;DHT22;32569;51.762;8.564;2023-08-07T10:02:00;17.00;99.90
15231;DHT22;32569;51.762;8.564;2023-08-07T10:04:28;17.00;99.90
15231;DHT22;32569;51.762;8.564;2023-08-07T10:06:55;17.00;99.90
15231;DHT22;32569;51.762;8.564;2023-08-07T10:09:22;16.90;99.90
15231;DHT22;32569;51.762;8.564;2023-08-07T10:11:50;16.90;99.90
15231;DHT22;32569;51.762;8.564;2023-08-07T10:14:18;16.80;99.90
15231;DHT22;32569;51.762;8.564;2023-08-07T10:16:45;16.90;99.90
15231;DHT22;32569;51.762;8.564;2023-08-07T10:19:12;16.90;99.90
15231;DHT22;32569;51.762;8.564;2023-08-07T10:21:40;16.80;99.90
15231;DHT22;32569;51.762;8.564;2023-08-07T10:24:08;16.80;99.90
15231;DHT22;32569;51.762;8.564;2023-08-07T10:26:36;16.90;99.90
15231;DHT22;32569;51.762;8.564;2023-08-07T10:29:10;17.00;99.90
15231;DHT22;32569;51.762;8.564;2023-08-07T10:31:38;17.10;99.90
15231;DHT22;32569;51.762;8.564;2023-08-07T10:34:07;17.30;99.90
15231;DHT22;32569;51.762;8.564;2023-08-07T10:36:34;17.40;99.90
15231;DHT22;32569;51.762;8.564;2023-08-07T10:39:08;17.70;99.90
15231;DHT22;32569;51.762;8.564;2023-08-07T10:41:39;17.90;99.90
15231;DHT22;32569;51.762;8.564;2023-08-07T10:44:18;17.80;99.90
15231;DHT22;32569;51.762;8.564;2023-08-07T10:46:51;17.60;99.90
15231;DHT22;32569;51.762;8.564;2023-08-07T10:49:30;17.30;99.90
15231;DHT22;32569;51.762;8.564;2023-08-07T10:51:58;17.50;99.90
15231;DHT22;32569;51.762;8.564;2023-08-07T10:54:25;17.50;99.90
15231;DHT22;32569;51.762;8.564;2023-08-07T10:56:53;17.60;99.90
15231;DHT22;32569;51.762;8.564;2023-08-07T10:59:21;17.60;99.90
15231;DHT22;32569;51.762;8.564;2023-08-07T11:01:51;17.70;99.90
15231;DHT22;32569;51.762;8.564;2023-08-07T11:04:18;17.70;99.90
15231;DHT22;32569;51.762;8.564;2023-08-07T11:06:47;17.60;99.90
15231;DHT22;32569;51.762;8.564;2023-08-07T11:09:14;17.60;99.90
15231;DHT22;32569;51.762;8.564;2023-08-07T11:11:44;17.70;99.90
15231;DHT22;32569;51.762;8.564;2023-08-07T11:14:12;17.90;99.90
15231;DHT22;32569;51.762;8.564;2023-08-07T11:16:40;17.80;99.90
15231;DHT22;32569;51.762;8.564;2023-08-07T11:19:08;17.80;99.90
15231;DHT22;32569;51.762;8.564;2023-08-07T11:21:36;17.80;99.90
15231;DHT22;32569;51.762;8.564;2023-08-07T11:24:03;17.80;99.90
15231;DHT22;32569;51.762;8.564;2023-08-07T11:26:30;17.70;99.90
15231;DHT22;32569;51.762;8.564;2023-08-07T11:28:57;17.80;99.90
15231;DHT22;32569;51.762;8.564;2023-08-07T11:31:25;18.10;99.90
15231;DHT22;32569;51.762;8.564;2023-08-07T11:33:57;18.20;99.90
15231;DHT22;32569;51.762;8.564;2023-08-07T11:36:25;17.90;99.90
15231;DHT22;32569;51.762;8.564;2023-08-07T11:38:51;17.10;99.90
15231;DHT22;32569;51.762;8.564;2023-08-07T11:41:18;16.80;99.40
15231;DHT22;32569;51.762;8.564;2023-08-07T11:43:45;16.50;99.90
15231;DHT22;32569;51.762;8.564;2023-08-07T11:46:14;16.20;99.90
15231;DHT22;32569;51.762;8.564;2023-08-07T11:48:42;16.20;99.90
15231;DHT22;32569;51.762;8.564;2023-08-07T11:51:10;16.30;99.90
15231;DHT22;32569;51.762;8.564;2023-08-07T11:53:39;16.30;99.90
15231;DHT22;32569;51.762;8.564;2023-08-07T11:56:07;16.10;99.90
15231;DHT22;32569;51.762;8.564;2023-08-07T11:58:36;15.90;99.90
15231;DHT22;32569;51.762;8.564;2023-08-07T12:01:04;16.00;99.90
15231;DHT22;32569;51.762;8.564;2023-08-07T12:03:32;16.00;99.90
15231;DHT22;32569;51.762;8.564;2023-08-07T12:06:03;16.30;99.90
15231;DHT22;32569;51.762;8.564;2023-08-07T12:08:36;16.40;99.90
15231;DHT22;32569;51.762;8.564;2023-08-07T12:11:04;16.50;99.90
15231;DHT22;32569;51.762;8.564;2023-08-07T12:13:31;16.40;99.90
15231;DHT22;32569;51.762;8.564;2023-08-07T12:16:01;16.50;99.90
15231;DHT22;32569;51.762;8.564;2023-08-07T12:18:30;16.60;99.90
15231;DHT22;32569;51.762;8.564;2023-08-07T12:20:57;16.70;99.90
15231;DHT22;32569;51.762;8.564;2023-08-07T12:23:25;17.00;99.90
15231;DHT22;32569;51.762;8.564;2023-08-07T12:25:53;17.40;99.90
15231;DHT22;32569;51.762;8.564;2023-08-07T12:28:20;17.60;99.90
15231;DHT22;32569;51.762;8.564;2023-08-07T12:30:48;17.90;99.90
15231;DHT22;32569;51.762;8.564;2023-08-07T12:33:15;18.10;99.90
15231;DHT22;32569;51.762;8.564;2023-08-07T12:35:41;18.10;99.90
15231;DHT22;32569;51.762;8.564;2023-08-07T12:38:08;18.00;99.90
15231;DHT22;32569;51.762;8.564;2023-08-07T12:40:35;17.80;99.90
15231;DHT22;32569;51.762;8.564;2023-08-07T12:43:05;17.60;99.90
15231;DHT22;32569;51.762;8.564;2023-08-07T12:45:32;17.30;99.90
15231;DHT22;32569;51.762;8.564;2023-08-07T12:47:59;17.10;99.90
15231;DHT22;32569;51.762;8.564;2023-08-07T12:50:25;17.10;99.90
15231;DHT22;32569;51.762;8.564;2023-08-07T12:52:52;17.10;99.90
15231;DHT22;32569;51.762;8.564;2023-08-07T12:55:19;17.10;99.90
15231;DHT22;32569;51.762;8.564;2023-08-07T12:57:46;17.20;99.90
15231;DHT22;32569;51.762;8.564;2023-08-07T13:00:16;17.60;99.90
15231;DHT22;32569;51.762;8.564;2023-08-07T13:02:44;17.90;99.90
15231;DHT22;32569;51.762;8.564;2023-08-07T13:05:11;18.20;99.90
15231;DHT22;32569;51.762;8.564;2023-08-07T13:07:40;18.20;99.70
15231;DHT22;32569;51.762;8.564;2023-08-07T13:10:08;18.20;99.00
15231;DHT22;32569;51.762;8.564;2023-08-07T13:12:36;18.40;99.40
15231;DHT22;32569;51.762;8.564;2023-08-07T13:15:04;18.20;98.50
15231;DHT22;32569;51.762;8.564;2023-08-07T13:17:33;18.20;98.70
15231;DHT22;32569;51.762;8.564;2023-08-07T13:20:01;18.00;98.60
15231;DHT22;32569;51.762;8.564;2023-08-07T13:22:33;17.90;97.10
15231;DHT22;32569;51.762;8.564;2023-08-07T13:25:00;17.80;96.90
15231;DHT22;32569;51.762;8.564;2023-08-07T13:27:28;17.80;97.40
15231;DHT22;32569;51.762;8.564;2023-08-07T13:29:55;17.80;97.30
15231;DHT22;32569;51.762;8.564;2023-08-07T13:32:22;17.90;97.40
15231;DHT22;32569;51.762;8.564;2023-08-07T13:34:53;17.90;97.70
15231;DHT22;32569;51.762;8.564;2023-08-07T13:37:20;18.20;98.10
15231;DHT22;32569;51.762;8.564;2023-08-07T13:39:47;18.50;97.40
15231;DHT22;32569;51.762;8.564;2023-08-07T13:42:16;18.50;96.50
15231;DHT22;32569;51.762;8.564;2023-08-07T13:44:42;18.70;96.50
15231;DHT22;32569;51.762;8.564;2023-08-07T13:47:09;18.60;96.70
15231;DHT22;32569;51.762;8.564;2023-08-07T13:49:37;18.50;96.30
15231;DHT22;32569;51.762;8.564;2023-08-07T13:52:06;18.50;95.80
15231;DHT22;32569;51.762;8.564;2023-08-07T13:54:38;18.50;95.20
15231;DHT22;32569;51.762;8.564;2023-08-07T13:57:06;18.40;95.00
15231;DHT22;32569;51.762;8.564;2023-08-07T13:59:32;18.50;94.90
15231;DHT22;32569;51.762;8.564;2023-08-07T14:01:59;18.40;95.20
15231;DHT22;32569;51.762;8.564;2023-08-07T14:04:26;18.30;95.10
15231;DHT22;32569;51.762;8.564;2023-08-07T14:06:52;18.40;95.80
15231;DHT22;32569;51.762;8.564;2023-08-07T14:09:20;18.60;96.00
15231;DHT22;32569;51.762;8.564;2023-08-07T14:11:48;18.70;95.60
15231;DHT22;32569;51.762;8.564;2023-08-07T14:14:17;18.80;94.90
15231;DHT22;32569;51.762;8.564;2023-08-07T14:16:44;18.80;95.40
15231;DHT22;32569;51.762;8.564;2023-08-07T14:19:11;18.80;95.30
15231;DHT22;32569;51.762;8.564;2023-08-07T14:21:37;18.80;94.30
15231;DHT22;32569;51.762;8.564;2023-08-07T14:24:05;18.70;94.50
15231;DHT22;32569;51.762;8.564;2023-08-07T14:26:33;18.80;94.40
15231;DHT22;32569;51.762;8.564;2023-08-07T14:29:00;18.80;94.10
15231;DHT22;32569;51.762;8.564;2023-08-07T14:31:26;18.80;94.30
15231;DHT22;32569;51.762;8.564;2023-08-07T14:33:53;18.60;94.70
15231;DHT22;32569;51.762;8.564;2023-08-07T14:36:20;18.60;94.80
15231;DHT22;32569;51.762;8.564;2023-08-07T14:38:46;18.60;95.50
15231;DHT22;32569;51.762;8.564;2023-08-07T14:41:13;18.60;95.20
15231;DHT22;32569;51.762;8.564;2023-08-07T14:43:41;18.50;95.40
15231;DHT22;32569;51.762;8.564;2023-08-07T14:46:11;18.30;95.10
15231;DHT22;32569;51.762;8.564;2023-08-07T14:48:38;18.30;95.40
15231;DHT22;32569;51.762;8.564;2023-08-07T14:51:05;18.40;95.20
15231;DHT22;32569;51.762;8.564;2023-08-07T14:53:37;18.40;95.50
15231;DHT22;32569;51.762;8.564;2023-08-07T14:56:08;18.40;95.00
15231;DHT22;32569;51.762;8.564;2023-08-07T14:58:35;18.60;94.90
15231;DHT22;32569;51.762;8.564;2023-08-07T15:01:03;18.70;95.10
15231;DHT22;32569;51.762;8.564;2023-08-07T15:03:30;19.00;95.70
15231;DHT22;32569;51.762;8.564;2023-08-07T15:05:57;18.80;94.70
15231;DHT22;32569;51.762;8.564;2023-08-07T15:08:24;18.70;95.50
15231;DHT22;32569;51.762;8.564;2023-08-07T15:10:51;18.70;95.00
15231;DHT22;32569;51.762;8.564;2023-08-07T15:13:18;18.60;95.50
15231;DHT22;32569;51.762;8.564;2023-08-07T15:15:45;18.50;95.20
15231;DHT22;32569;51.762;8.564;2023-08-07T15:18:13;18.50;96.10
15231;DHT22;32569;51.762;8.564;2023-08-07T15:20:40;18.40;95.10
15231;DHT22;32569;51.762;8.564;2023-08-07T15:23:07;18.50;95.50
15231;DHT22;32569;51.762;8.564;2023-08-07T15:25:33;18.40;95.60
15231;DHT22;32569;51.762;8.564;2023-08-07T15:28:06;18.60;95.60
15231;DHT22;32569;51.762;8.564;2023-08-07T15:30:33;18.70;95.10
15231;DHT22;32569;51.762;8.564;2023-08-07T15:33:03;18.60;94.90